sensor_id;sensor_type;location;lat;lon;timestamp;pressure;altitude;pressure_sealevel;temperature;humidity
32735;BME280;19112;51.076;3.706;2023-04-03T00:02:14;102605.31;;;5.40;74.90
32735;BME280;19112;51.076;3.706;2023-04-03T00:04:47;102646.06;;;5.50;74.77
32735;BME280;19112;51.076;3.706;2023-04-03T00:07:18;102758.06;;;6.23;74.88
32735;BME280;19112;51.076;3.706;2023-04-03T00:09:43;102786.09;;;6.25;74.15
32735;BME280;19112;51.076;3.706;2023-04-03T00:12:15;102857.94;;;6.74;74.56
32735;BME280;19112;51.076;3.706;2023-04-03T00:14:41;102740.13;;;6.06;74.81
32735;BME280;19112;51.076;3.706;2023-04-03T00:17:07;102580.53;;;5.13;74.64
32735;BME280;19112;51.076;3.706;2023-04-03T00:19:33;102792.50;;;6.29;74.42
32735;BME280;19112;51.076;3.706;2023-04-03T00:22:05;102719.56;;;5.88;74.52
32735;BME280;19112;51.076;3.706;2023-04-03T00:24:36;102787.13;;;6.27;74.10
32735;BME280;19112;51.076;3.706;2023-04-03T00:27:01;102538.66;;;4.90;73.89
32735;BME280;19112;51.076;3.706;2023-04-03T00:29:27;102485.91;;;4.40;73.83
32735;BME280;19112;51.076;3.706;2023-04-03T00:32:03;102860.31;;;6.71;74.16
32735;BME280;19112;51.076;3.706;2023-04-03T00:34:28;102760.72;;;6.13;72.62
32735;BME280;19112;51.076;3.706;2023-04-03T00:36:54;102393.53;;;4.13;72.94
32735;BME280;19112;51.076;3.706;2023-04-03T00:39:20;102513.97;;;4.75;73.54
32735;BME280;19112;51.076;3.706;2023-04-03T00:41:46;102818.41;;;6.38;73.82
32735;BME280;19112;51.076;3.706;2023-04-03T00:47:00;102741.47;;;6.00;73.46
32735;BME280;19112;51.076;3.706;2023-04-03T00:49:28;102818.25;;;6.46;73.51
32735;BME280;19112;51.076;3.706;2023-04-03T00:51:56;102587.94;;;5.09;73.16
32735;BME280;19112;51.076;3.706;2023-04-03T00:54:24;102566.75;;;4.94;72.98
32735;BME280;19112;51.076;3.706;2023-04-03T00:56:57;102894.25;;;6.71;73.77
32735;BME280;19112;51.076;3.706;2023-04-03T00:59:25;102870.44;;;6.78;72.86
32735;BME280;19112;51.076;3.706;2023-04-03T01:01:58;102628.00;;;5.31;73.18
32735;BME280;19112;51.076;3.706;2023-04-03T01:04:37;102881.94;;;6.70;72.53
32735;BME280;19112;51.076;3.706;2023-04-03T01:09:39;102722.09;;;5.76;71.73
32735;BME280;19112;51.076;3.706;2023-04-03T01:12:26;102884.44;;;6.69;72.43
32735;BME280;19112;51.076;3.706;2023-04-03T01:15:19;102813.72;;;6.34;72.96
32735;BME280;19112;51.076;3.706;2023-04-03T01:17:57;102810.88;;;6.30;71.88
32735;BME280;19112;51.076;3.706;2023-04-03T01:25:49;102803.88;;;6.19;72.49
32735;BME280;19112;51.076;3.706;2023-04-03T01:28:34;102882.13;;;6.62;71.16
32735;BME280;19112;51.076;3.706;2023-04-03T01:33:49;102797.09;;;6.11;71.61
32735;BME280;19112;51.076;3.706;2023-04-03T01:36:26;102838.00;;;6.22;70.91
32735;BME280;19112;51.076;3.706;2023-04-03T01:38:54;102836.03;;;6.30;72.13
32735;BME280;19112;51.076;3.706;2023-04-03T01:41:21;102537.66;;;4.57;71.84
32735;BME280;19112;51.076;3.706;2023-04-03T01:43:48;102841.16;;;6.28;71.61
32735;BME280;19112;51.076;3.706;2023-04-03T01:46:15;102619.31;;;5.10;71.68
32735;BME280;19112;51.076;3.706;2023-04-03T01:48:41;102539.09;;;4.64;71.02
32735;BME280;19112;51.076;3.706;2023-04-03T01:51:08;102772.75;;;6.00;71.20
32735;BME280;19112;51.076;3.706;2023-04-03T01:53:34;102810.41;;;6.14;70.87
32735;BME280;19112;51.076;3.706;2023-04-03T01:56:02;102810.41;;;6.14;70.87
32735;BME280;19112;51.076;3.706;2023-04-03T01:58:29;102881.88;;;6.59;71.30
32735;BME280;19112;51.076;3.706;2023-04-03T02:00:55;102631.00;;;5.25;71.32
32735;BME280;19112;51.076;3.706;2023-04-03T02:03:22;102636.22;;;5.15;70.97
32735;BME280;19112;51.076;3.706;2023-04-03T02:05:48;102790.06;;;6.10;71.09
32735;BME280;19112;51.076;3.706;2023-04-03T02:08:15;102158.97;;;2.59;70.83
32735;BME280;19112;51.076;3.706;2023-04-03T02:10:48;102635.81;;;5.31;71.55
32735;BME280;19112;51.076;3.706;2023-04-03T02:13:16;102299.66;;;3.27;70.01
32735;BME280;19112;51.076;3.706;2023-04-03T02:15:44;102654.69;;;5.29;71.17
32735;BME280;19112;51.076;3.706;2023-04-03T02:18:11;102894.50;;;6.64;71.56
32735;BME280;19112;51.076;3.706;2023-04-03T02:20:44;102896.19;;;6.64;71.36
32735;BME280;19112;51.076;3.706;2023-04-03T02:23:15;102561.03;;;4.78;71.50
32735;BME280;19112;51.076;3.706;2023-04-03T02:25:41;102899.09;;;6.56;71.94
32735;BME280;19112;51.076;3.706;2023-04-03T02:28:07;102675.25;;;5.25;71.42
32735;BME280;19112;51.076;3.706;2023-04-03T02:30:33;102581.97;;;4.79;71.63
32735;BME280;19112;51.076;3.706;2023-04-03T02:32:59;102864.22;;;6.34;71.21
32735;BME280;19112;51.076;3.706;2023-04-03T02:35:26;102721.47;;;5.48;71.14
32735;BME280;19112;51.076;3.706;2023-04-03T02:37:51;102571.47;;;4.57;70.27
32735;BME280;19112;51.076;3.706;2023-04-03T02:40:17;102156.31;;;2.29;70.87
32735;BME280;19112;51.076;3.706;2023-04-03T02:42:43;102513.22;;;4.25;70.22
32735;BME280;19112;51.076;3.706;2023-04-03T02:45:09;102899.53;;;6.41;70.57
32735;BME280;19112;51.076;3.706;2023-04-03T02:47:35;102797.38;;;5.84;70.38
32735;BME280;19112;51.076;3.706;2023-04-03T02:50:01;102535.81;;;4.36;70.28
32735;BME280;19112;51.076;3.706;2023-04-03T02:52:26;102862.66;;;6.26;70.50
32735;BME280;19112;51.076;3.706;2023-04-03T02:54:52;102887.41;;;6.31;70.18
32735;BME280;19112;51.076;3.706;2023-04-03T02:57:18;102926.13;;;6.47;70.34
32735;BME280;19112;51.076;3.706;2023-04-03T02:59:45;102744.53;;;5.54;69.56
32735;BME280;19112;51.076;3.706;2023-04-03T03:02:11;102855.75;;;6.16;69.95
32735;BME280;19112;51.076;3.706;2023-04-03T03:04:44;102670.72;;;5.13;69.45
32735;BME280;19112;51.076;3.706;2023-04-03T03:07:15;102860.72;;;6.23;69.54
32735;BME280;19112;51.076;3.706;2023-04-03T03:09:45;102730.72;;;5.35;68.44
32735;BME280;19112;51.076;3.706;2023-04-03T03:12:17;102630.28;;;4.86;68.69
32735;BME280;19112;51.076;3.706;2023-04-03T03:14:51;102832.19;;;6.04;68.73
32735;BME280;19112;51.076;3.706;2023-04-03T03:17:17;102441.19;;;3.73;68.06
32735;BME280;19112;51.076;3.706;2023-04-03T03:19:46;102581.34;;;4.61;68.85
32735;BME280;19112;51.076;3.706;2023-04-03T03:22:17;102915.56;;;6.45;68.32
32735;BME280;19112;51.076;3.706;2023-04-03T03:24:44;102817.22;;;5.92;68.50
32735;BME280;19112;51.076;3.706;2023-04-03T03:27:11;102722.25;;;5.37;67.99
32735;BME280;19112;51.076;3.706;2023-04-03T03:29:38;102847.94;;;6.06;68.37
32735;BME280;19112;51.076;3.706;2023-04-03T03:32:05;102767.81;;;5.52;68.34
32735;BME280;19112;51.076;3.706;2023-04-03T03:34:34;102816.00;;;5.88;68.48
32735;BME280;19112;51.076;3.706;2023-04-03T03:37:01;102917.28;;;6.45;68.08
32735;BME280;19112;51.076;3.706;2023-04-03T03:39:32;102846.91;;;6.04;68.24
32735;BME280;19112;51.076;3.706;2023-04-03T03:41:58;102613.75;;;4.65;68.33
32735;BME280;19112;51.076;3.706;2023-04-03T03:44:24;102923.41;;;6.35;67.88
32735;BME280;19112;51.076;3.706;2023-04-03T03:46:50;102914.69;;;6.35;68.28
32735;BME280;19112;51.076;3.706;2023-04-03T03:49:16;102923.66;;;6.38;68.46
32735;BME280;19112;51.076;3.706;2023-04-03T03:51:42;102928.88;;;6.38;68.64
32735;BME280;19112;51.076;3.706;2023-04-03T03:54:09;102866.19;;;6.06;68.08
32735;BME280;19112;51.076;3.706;2023-04-03T03:56:35;102821.34;;;5.79;68.42
32735;BME280;19112;51.076;3.706;2023-04-03T03:59:01;102789.56;;;5.63;68.40
32735;BME280;19112;51.076;3.706;2023-04-03T04:01:29;102918.44;;;6.38;68.25
32735;BME280;19112;51.076;3.706;2023-04-03T04:03:59;102741.16;;;5.35;68.39
32735;BME280;19112;51.076;3.706;2023-04-03T04:06:24;102751.44;;;5.33;68.59
32735;BME280;19112;51.076;3.706;2023-04-03T04:08:51;102210.34;;;2.24;68.51
32735;BME280;19112;51.076;3.706;2023-04-03T04:11:17;102789.06;;;5.37;68.80
32735;BME280;19112;51.076;3.706;2023-04-03T04:13:46;102933.97;;;6.26;68.87
32735;BME280;19112;51.076;3.706;2023-04-03T04:16:12;102891.91;;;5.91;68.72
32735;BME280;19112;51.076;3.706;2023-04-03T04:18:37;102832.31;;;5.55;68.75
32735;BME280;19112;51.076;3.706;2023-04-03T04:21:03;102701.03;;;4.71;68.83
32735;BME280;19112;51.076;3.706;2023-04-03T04:23:30;102764.28;;;5.11;68.92
32735;BME280;19112;51.076;3.706;2023-04-03T04:25:55;102067.56;;;1.14;68.73
32735;BME280;19112;51.076;3.706;2023-04-03T04:28:21;102523.00;;;3.78;68.88
32735;BME280;19112;51.076;3.706;2023-04-03T04:30:47;102939.88;;;6.14;69.47
32735;BME280;19112;51.076;3.706;2023-04-03T04:33:13;102937.00;;;6.11;69.39
32735;BME280;19112;51.076;3.706;2023-04-03T04:35:41;102869.56;;;5.74;69.42
32735;BME280;19112;51.076;3.706;2023-04-03T04:38:09;102825.66;;;5.48;69.26
32735;BME280;19112;51.076;3.706;2023-04-03T04:40:35;102907.88;;;5.86;69.23
32735;BME280;19112;51.076;3.706;2023-04-03T04:43:03;102599.25;;;4.17;69.26
32735;BME280;19112;51.076;3.706;2023-04-03T04:45:34;102754.41;;;4.97;69.29
32735;BME280;19112;51.076;3.706;2023-04-03T04:48:00;102832.19;;;5.43;69.79
32735;BME280;19112;51.076;3.706;2023-04-03T04:50:26;102788.28;;;5.17;69.49
32735;BME280;19112;51.076;3.706;2023-04-03T04:52:53;102621.84;;;4.18;69.27
32735;BME280;19112;51.076;3.706;2023-04-03T04:55:19;102939.34;;;5.97;69.76
32735;BME280;19112;51.076;3.706;2023-04-03T04:57:46;102826.19;;;5.34;70.15
32735;BME280;19112;51.076;3.706;2023-04-03T05:00:13;102820.28;;;5.16;70.23
32735;BME280;19112;51.076;3.706;2023-04-03T05:02:39;102719.22;;;4.71;70.46
32735;BME280;19112;51.076;3.706;2023-04-03T05:05:05;102773.16;;;5.03;70.36
32735;BME280;19112;51.076;3.706;2023-04-03T05:07:31;102582.31;;;4.02;70.60
32735;BME280;19112;51.076;3.706;2023-04-03T05:09:57;102943.13;;;6.01;70.51
32735;BME280;19112;51.076;3.706;2023-04-03T05:12:23;102927.69;;;5.84;70.99
32735;BME280;19112;51.076;3.706;2023-04-03T05:14:49;102853.94;;;5.44;70.60
32735;BME280;19112;51.076;3.706;2023-04-03T05:17:16;102856.38;;;5.42;70.95
32735;BME280;19112;51.076;3.706;2023-04-03T05:19:43;102662.81;;;4.31;70.97
32735;BME280;19112;51.076;3.706;2023-04-03T05:22:08;102932.91;;;5.84;71.31
32735;BME280;19112;51.076;3.706;2023-04-03T05:24:35;102871.25;;;5.43;71.38
32735;BME280;19112;51.076;3.706;2023-04-03T05:27:00;102849.34;;;5.31;71.43
32735;BME280;19112;51.076;3.706;2023-04-03T05:29:26;102934.50;;;5.82;71.24
32735;BME280;19112;51.076;3.706;2023-04-03T05:31:52;102838.28;;;5.23;71.52
32735;BME280;19112;51.076;3.706;2023-04-03T05:34:18;102940.72;;;5.84;71.83
32735;BME280;19112;51.076;3.706;2023-04-03T05:36:44;102969.34;;;5.92;71.94
32735;BME280;19112;51.076;3.706;2023-04-03T05:39:10;102734.34;;;4.76;71.88
32735;BME280;19112;51.076;3.706;2023-04-03T05:41:36;102830.72;;;5.26;72.07
32735;BME280;19112;51.076;3.706;2023-04-03T05:44:02;102859.41;;;5.47;72.05
32735;BME280;19112;51.076;3.706;2023-04-03T05:46:27;102920.25;;;5.68;72.09
32735;BME280;19112;51.076;3.706;2023-04-03T05:49:03;102789.16;;;4.97;71.79
32735;BME280;19112;51.076;3.706;2023-04-03T05:51:34;102872.53;;;5.48;71.99
32735;BME280;19112;51.076;3.706;2023-04-03T05:54:16;102911.16;;;5.73;72.13
32735;BME280;19112;51.076;3.706;2023-04-03T05:56:43;102938.13;;;5.73;71.92
32735;BME280;19112;51.076;3.706;2023-04-03T05:59:09;102968.44;;;6.02;72.33
32735;BME280;19112;51.076;3.706;2023-04-03T06:01:37;102816.38;;;5.21;72.02
32735;BME280;19112;51.076;3.706;2023-04-03T06:04:11;102885.34;;;5.56;71.85
32735;BME280;19112;51.076;3.706;2023-04-03T06:06:52;102786.44;;;5.06;71.75
32735;BME280;19112;51.076;3.706;2023-04-03T06:09:27;102946.13;;;6.06;71.68
32735;BME280;19112;51.076;3.706;2023-04-03T06:12:19;102888.72;;;5.75;71.64
32735;BME280;19112;51.076;3.706;2023-04-03T06:14:49;102898.00;;;5.82;71.58
32735;BME280;19112;51.076;3.706;2023-04-03T06:17:17;102872.72;;;5.60;71.22
32735;BME280;19112;51.076;3.706;2023-04-03T06:19:47;102755.84;;;5.04;71.23
32735;BME280;19112;51.076;3.706;2023-04-03T06:22:15;102925.13;;;6.04;71.33
32735;BME280;19112;51.076;3.706;2023-04-03T06:24:42;102574.13;;;4.08;70.92
32735;BME280;19112;51.076;3.706;2023-04-03T06:27:28;102744.25;;;5.00;70.52
32735;BME280;19112;51.076;3.706;2023-04-03T06:29:54;102622.16;;;4.42;70.02
32735;BME280;19112;51.076;3.706;2023-04-03T06:32:20;102742.72;;;5.12;70.21
32735;BME280;19112;51.076;3.706;2023-04-03T06:35:15;102976.09;;;6.62;70.68
32735;BME280;19112;51.076;3.706;2023-04-03T06:37:41;102974.00;;;6.57;70.16
32735;BME280;19112;51.076;3.706;2023-04-03T06:40:23;102897.75;;;6.09;69.84
32735;BME280;19112;51.076;3.706;2023-04-03T06:42:49;102903.09;;;6.21;68.94
32735;BME280;19112;51.076;3.706;2023-04-03T06:45:16;102846.38;;;5.77;68.61
32735;BME280;19112;51.076;3.706;2023-04-03T06:47:41;102276.91;;;2.54;68.39
32735;BME280;19112;51.076;3.706;2023-04-03T06:50:10;102983.13;;;6.52;69.23
32735;BME280;19112;51.076;3.706;2023-04-03T06:52:41;102886.16;;;6.06;68.87
32735;BME280;19112;51.076;3.706;2023-04-03T06:55:15;102943.38;;;6.45;68.55
32735;BME280;19112;51.076;3.706;2023-04-03T06:57:54;102937.19;;;6.54;68.18
32735;BME280;19112;51.076;3.706;2023-04-03T07:00:27;102973.78;;;6.87;67.89
32735;BME280;19112;51.076;3.706;2023-04-03T07:02:54;102716.03;;;5.35;66.78
32735;BME280;19112;51.076;3.706;2023-04-03T07:05:30;102924.94;;;6.53;66.85
32735;BME280;19112;51.076;3.706;2023-04-03T07:08:00;102966.16;;;6.68;66.38
32735;BME280;19112;51.076;3.706;2023-04-03T07:10:44;102859.25;;;6.27;66.75
32735;BME280;19112;51.076;3.706;2023-04-03T07:17:04;102743.34;;;5.50;66.12
32735;BME280;19112;51.076;3.706;2023-04-03T07:19:39;102750.25;;;5.60;65.88
32735;BME280;19112;51.076;3.706;2023-04-03T07:22:05;102929.75;;;6.59;65.77
32735;BME280;19112;51.076;3.706;2023-04-03T07:24:35;102888.44;;;6.43;65.48
32735;BME280;19112;51.076;3.706;2023-04-03T07:27:06;102763.09;;;5.79;65.64
32735;BME280;19112;51.076;3.706;2023-04-03T07:29:34;102728.84;;;5.74;65.70
32735;BME280;19112;51.076;3.706;2023-04-03T07:32:03;102684.50;;;5.32;64.28
32735;BME280;19112;51.076;3.706;2023-04-03T07:34:34;102895.47;;;6.44;64.32
32735;BME280;19112;51.076;3.706;2023-04-03T07:37:04;102945.84;;;6.86;64.87
32735;BME280;19112;51.076;3.706;2023-04-03T07:39:30;102927.88;;;6.78;64.97
32735;BME280;19112;51.076;3.706;2023-04-03T07:42:11;102258.88;;;3.05;64.62
32735;BME280;19112;51.076;3.706;2023-04-03T07:44:38;103003.19;;;7.26;65.31
32735;BME280;19112;51.076;3.706;2023-04-03T07:47:04;102433.03;;;3.99;65.77
32735;BME280;19112;51.076;3.706;2023-04-03T07:49:30;102955.53;;;6.76;66.04
32735;BME280;19112;51.076;3.706;2023-04-03T07:51:56;103004.53;;;7.11;65.91
32735;BME280;19112;51.076;3.706;2023-04-03T07:54:22;102816.66;;;5.96;66.01
32735;BME280;19112;51.076;3.706;2023-04-03T07:56:48;102806.91;;;5.93;66.51
32735;BME280;19112;51.076;3.706;2023-04-03T07:59:14;102978.41;;;7.11;66.54
32735;BME280;19112;51.076;3.706;2023-04-03T08:01:42;102766.88;;;5.83;66.43
32735;BME280;19112;51.076;3.706;2023-04-03T08:04:09;102673.69;;;5.38;66.23
32735;BME280;19112;51.076;3.706;2023-04-03T08:06:34;103046.78;;;7.27;66.45
32735;BME280;19112;51.076;3.706;2023-04-03T08:09:07;102528.03;;;4.56;66.19
32735;BME280;19112;51.076;3.706;2023-04-03T08:11:34;102553.75;;;4.84;66.29
32735;BME280;19112;51.076;3.706;2023-04-03T08:14:02;102683.81;;;5.65;66.69
32735;BME280;19112;51.076;3.706;2023-04-03T08:16:28;102900.94;;;6.90;65.76
32735;BME280;19112;51.076;3.706;2023-04-03T08:18:54;102967.78;;;7.30;66.30
32735;BME280;19112;51.076;3.706;2023-04-03T08:21:21;102922.16;;;7.04;65.68
32735;BME280;19112;51.076;3.706;2023-04-03T08:23:49;102935.25;;;7.26;66.24
32735;BME280;19112;51.076;3.706;2023-04-03T08:26:20;102919.38;;;7.13;64.74
32735;BME280;19112;51.076;3.706;2023-04-03T08:28:48;102975.78;;;7.43;65.18
32735;BME280;19112;51.076;3.706;2023-04-03T08:31:17;102813.00;;;6.56;64.46
32735;BME280;19112;51.076;3.706;2023-04-03T08:33:45;103013.22;;;7.98;65.03
32735;BME280;19112;51.076;3.706;2023-04-03T08:36:25;102874.19;;;7.36;64.37
32735;BME280;19112;51.076;3.706;2023-04-03T08:38:53;102980.09;;;7.86;63.38
32735;BME280;19112;51.076;3.706;2023-04-03T08:44:32;103018.31;;;8.18;63.84
32735;BME280;19112;51.076;3.706;2023-04-03T08:47:28;102981.66;;;7.73;63.43
32735;BME280;19112;51.076;3.706;2023-04-03T08:50:08;102741.25;;;6.51;64.00
32735;BME280;19112;51.076;3.706;2023-04-03T08:52:51;102693.81;;;6.23;63.47
32735;BME280;19112;51.076;3.706;2023-04-03T08:58:09;103010.41;;;7.73;62.79
32735;BME280;19112;51.076;3.706;2023-04-03T09:00:46;102702.59;;;6.36;61.79
32735;BME280;19112;51.076;3.706;2023-04-03T09:03:21;102989.59;;;7.96;62.80
32735;BME280;19112;51.076;3.706;2023-04-03T09:06:25;102839.03;;;6.99;61.99
32735;BME280;19112;51.076;3.706;2023-04-03T09:09:13;103022.75;;;8.19;61.77
32735;BME280;19112;51.076;3.706;2023-04-03T09:17:41;103017.50;;;8.41;59.89
32735;BME280;19112;51.076;3.706;2023-04-03T09:23:01;103019.56;;;8.45;58.81
32735;BME280;19112;51.076;3.706;2023-04-03T09:25:37;103015.28;;;8.35;57.44
32735;BME280;19112;51.076;3.706;2023-04-03T09:28:04;102908.47;;;7.84;57.65
32735;BME280;19112;51.076;3.706;2023-04-03T09:30:38;102819.75;;;7.30;56.73
32735;BME280;19112;51.076;3.706;2023-04-03T09:33:04;103013.22;;;8.53;56.02
32735;BME280;19112;51.076;3.706;2023-04-03T09:35:37;102971.59;;;8.23;54.81
32735;BME280;19112;51.076;3.706;2023-04-03T09:40:41;103003.97;;;8.47;53.71
32735;BME280;19112;51.076;3.706;2023-04-03T09:43:30;102861.81;;;7.67;52.71
32735;BME280;19112;51.076;3.706;2023-04-03T09:48:58;102889.38;;;7.85;53.07
32735;BME280;19112;51.076;3.706;2023-04-03T09:51:31;102936.31;;;8.18;52.60
32735;BME280;19112;51.076;3.706;2023-04-03T09:53:57;102690.06;;;6.75;52.68
32735;BME280;19112;51.076;3.706;2023-04-03T09:56:32;102826.25;;;7.35;53.41
32735;BME280;19112;51.076;3.706;2023-04-03T10:01:37;102712.06;;;6.89;54.94
32735;BME280;19112;51.076;3.706;2023-04-03T10:04:17;102995.91;;;8.44;53.29
32735;BME280;19112;51.076;3.706;2023-04-03T10:09:31;102992.75;;;8.71;54.61
32735;BME280;19112;51.076;3.706;2023-04-03T10:12:07;102988.22;;;8.80;53.68
32735;BME280;19112;51.076;3.706;2023-04-03T10:14:59;102942.84;;;8.46;53.94
32735;BME280;19112;51.076;3.706;2023-04-03T10:17:58;103005.97;;;8.73;53.41
32735;BME280;19112;51.076;3.706;2023-04-03T10:20:44;102997.44;;;8.87;53.48
32735;BME280;19112;51.076;3.706;2023-04-03T10:26:27;102789.91;;;8.07;53.19
32735;BME280;19112;51.076;3.706;2023-04-03T10:32:22;102975.88;;;9.26;51.66
32735;BME280;19112;51.076;3.706;2023-04-03T10:38:35;102967.53;;;9.43;53.96
32735;BME280;19112;51.076;3.706;2023-04-03T10:41:33;102968.34;;;9.31;50.25
32735;BME280;19112;51.076;3.706;2023-04-03T10:56:47;102956.28;;;9.58;47.29
32735;BME280;19112;51.076;3.706;2023-04-03T11:01:56;102850.00;;;9.13;48.58
32735;BME280;19112;51.076;3.706;2023-04-03T11:04:25;102875.00;;;9.33;48.24
32735;BME280;19112;51.076;3.706;2023-04-03T11:07:02;102946.31;;;9.77;48.75
32735;BME280;19112;51.076;3.706;2023-04-03T11:09:41;102804.00;;;9.05;48.72
32735;BME280;19112;51.076;3.706;2023-04-03T11:13:06;102944.19;;;9.96;46.81
32735;BME280;19112;51.076;3.706;2023-04-03T11:15:17;102934.28;;;9.92;45.84
32735;BME280;19112;51.076;3.706;2023-04-03T11:18:27;102983.25;;;10.05;46.10
32735;BME280;19112;51.076;3.706;2023-04-03T11:21:11;102841.34;;;9.64;46.75
32735;BME280;19112;51.076;3.706;2023-04-03T11:23:40;102924.75;;;10.19;44.79
32735;BME280;19112;51.076;3.706;2023-04-03T11:26:20;102879.50;;;9.97;43.70
32735;BME280;19112;51.076;3.706;2023-04-03T11:28:53;102915.75;;;10.41;43.70
32735;BME280;19112;51.076;3.706;2023-04-03T11:31:42;102910.47;;;10.54;42.84
32735;BME280;19112;51.076;3.706;2023-04-03T11:34:24;102894.84;;;10.82;43.41
32735;BME280;19112;51.076;3.706;2023-04-03T11:36:58;102854.94;;;10.48;43.43
32735;BME280;19112;51.076;3.706;2023-04-03T11:39:30;102872.13;;;10.56;42.88
32735;BME280;19112;51.076;3.706;2023-04-03T11:45:51;102877.06;;;10.78;42.23
32735;BME280;19112;51.076;3.706;2023-04-03T11:50:47;102802.38;;;10.21;41.43
32735;BME280;19112;51.076;3.706;2023-04-03T11:58:21;102763.53;;;10.03;44.01
32735;BME280;19112;51.076;3.706;2023-04-03T12:01:06;102869.84;;;10.75;44.73
32735;BME280;19112;51.076;3.706;2023-04-03T12:03:34;102865.41;;;10.88;44.74
32735;BME280;19112;51.076;3.706;2023-04-03T12:08:48;102305.13;;;7.82;44.35
32735;BME280;19112;51.076;3.706;2023-04-03T12:11:45;102703.47;;;10.07;42.95
32735;BME280;19112;51.076;3.706;2023-04-03T12:14:17;102599.78;;;9.46;41.75
32735;BME280;19112;51.076;3.706;2023-04-03T12:16:46;102571.25;;;9.51;42.59
32735;BME280;19112;51.076;3.706;2023-04-03T12:19:37;102582.53;;;9.36;40.89
32735;BME280;19112;51.076;3.706;2023-04-03T12:22:20;102533.16;;;9.29;41.01
32735;BME280;19112;51.076;3.706;2023-04-03T12:24:52;102584.47;;;9.39;41.13
32735;BME280;19112;51.076;3.706;2023-04-03T12:27:33;102846.97;;;11.14;42.56
32735;BME280;19112;51.076;3.706;2023-04-03T12:30:23;102854.84;;;11.14;41.12
32735;BME280;19112;51.076;3.706;2023-04-03T12:33:04;102693.38;;;10.00;41.58
32735;BME280;19112;51.076;3.706;2023-04-03T12:36:11;102852.00;;;11.11;40.85
32735;BME280;19112;51.076;3.706;2023-04-03T12:39:03;102779.53;;;10.73;40.37
32735;BME280;19112;51.076;3.706;2023-04-03T12:41:56;102621.31;;;9.95;40.33
32735;BME280;19112;51.076;3.706;2023-04-03T12:45:15;102850.25;;;11.25;39.85
32735;BME280;19112;51.076;3.706;2023-04-03T12:47:35;102542.09;;;9.46;40.06
32735;BME280;19112;51.076;3.706;2023-04-03T12:50:27;102548.94;;;9.57;39.90
32735;BME280;19112;51.076;3.706;2023-04-03T12:53:19;102647.31;;;10.32;39.83
32735;BME280;19112;51.076;3.706;2023-04-03T12:55:55;102851.47;;;11.45;39.19
32735;BME280;19112;51.076;3.706;2023-04-03T12:58:28;102695.53;;;10.88;39.50
32735;BME280;19112;51.076;3.706;2023-04-03T13:01:18;102607.84;;;10.30;39.30
32735;BME280;19112;51.076;3.706;2023-04-03T13:03:53;102855.91;;;11.31;38.46
32735;BME280;19112;51.076;3.706;2023-04-03T13:06:27;102657.69;;;10.43;37.68
32735;BME280;19112;51.076;3.706;2023-04-03T13:08:59;102158.34;;;7.63;37.53
32735;BME280;19112;51.076;3.706;2023-04-03T13:11:32;102693.94;;;10.77;38.24
32735;BME280;19112;51.076;3.706;2023-04-03T13:14:19;102821.50;;;11.56;37.85
32735;BME280;19112;51.076;3.706;2023-04-03T13:17:12;102448.47;;;9.43;37.37
32735;BME280;19112;51.076;3.706;2023-04-03T13:19:39;102222.38;;;8.22;36.99
32735;BME280;19112;51.076;3.706;2023-04-03T13:22:31;102778.19;;;10.93;37.01
32735;BME280;19112;51.076;3.706;2023-04-03T13:25:03;102733.72;;;11.11;37.29
32735;BME280;19112;51.076;3.706;2023-04-03T13:27:31;102803.22;;;11.44;36.97
32735;BME280;19112;51.076;3.706;2023-04-03T13:30:00;102684.81;;;10.85;36.06
32735;BME280;19112;51.076;3.706;2023-04-03T13:32:30;102667.47;;;10.74;36.96
32735;BME280;19112;51.076;3.706;2023-04-03T13:34:56;102617.09;;;10.38;36.51
32735;BME280;19112;51.076;3.706;2023-04-03T13:37:28;102504.22;;;9.82;36.90
32735;BME280;19112;51.076;3.706;2023-04-03T13:42:37;102589.38;;;10.57;35.71
32735;BME280;19112;51.076;3.706;2023-04-03T13:45:26;102710.25;;;11.29;34.11
32735;BME280;19112;51.076;3.706;2023-04-03T13:48:18;102788.50;;;11.61;34.56
32735;BME280;19112;51.076;3.706;2023-04-03T13:51:04;102720.59;;;11.26;35.18
32735;BME280;19112;51.076;3.706;2023-04-03T13:53:33;102694.94;;;11.37;35.47
32735;BME280;19112;51.076;3.706;2023-04-03T13:58:33;102339.00;;;9.69;35.62
32735;BME280;19112;51.076;3.706;2023-04-03T14:01:14;102777.22;;;12.23;35.00
32735;BME280;19112;51.076;3.706;2023-04-03T14:03:51;102235.47;;;9.33;35.14
32735;BME280;19112;51.076;3.706;2023-04-03T14:06:17;102660.38;;;11.60;34.17
32735;BME280;19112;51.076;3.706;2023-04-03T14:08:45;102597.75;;;10.94;33.44
32735;BME280;19112;51.076;3.706;2023-04-03T14:11:20;102630.56;;;11.00;33.58
32735;BME280;19112;51.076;3.706;2023-04-03T14:13:47;102675.06;;;10.97;32.89
32735;BME280;19112;51.076;3.706;2023-04-03T14:16:18;102525.31;;;10.40;33.70
32735;BME280;19112;51.076;3.706;2023-04-03T14:18:45;102450.38;;;10.17;34.09
32735;BME280;19112;51.076;3.706;2023-04-03T14:21:15;102535.84;;;10.55;32.42
32735;BME280;19112;51.076;3.706;2023-04-03T14:23:42;102663.13;;;11.32;32.27
32735;BME280;19112;51.076;3.706;2023-04-03T14:26:21;102756.13;;;11.92;33.43
32735;BME280;19112;51.076;3.706;2023-04-03T14:28:50;102635.28;;;11.36;33.08
32735;BME280;19112;51.076;3.706;2023-04-03T14:31:19;102766.75;;;11.93;31.77
32735;BME280;19112;51.076;3.706;2023-04-03T14:33:45;102626.66;;;11.23;32.72
32735;BME280;19112;51.076;3.706;2023-04-03T14:36:23;102596.56;;;11.18;32.38
32735;BME280;19112;51.076;3.706;2023-04-03T14:38:51;102695.84;;;11.82;32.31
32735;BME280;19112;51.076;3.706;2023-04-03T14:41:22;102651.59;;;11.45;32.31
32735;BME280;19112;51.076;3.706;2023-04-03T14:43:50;102717.44;;;11.91;33.30
32735;BME280;19112;51.076;3.706;2023-04-03T14:46:33;102720.44;;;11.97;33.54
32735;BME280;19112;51.076;3.706;2023-04-03T14:49:00;102632.94;;;11.25;32.96
32735;BME280;19112;51.076;3.706;2023-04-03T14:51:26;102490.28;;;10.54;33.54